Main page
METAR-TAF:

METAR-TAF

Airports :

Uberaba Airport

Uberaba, Minas Gerais, Brazil

latitude: 19-47S, longitude: 047-58W, elevation: 807 m

Current weather observation

The report was made 56 minutes ago, at 02:00 UTC
Wind 7 kt from the Northeast
Temperature 20°C
Humidity 64%
Pressure 1022 hPa
Visibility 10 km or more
no clouds below 1500 m and no cumulonimbus

METAR: SBUR 240200Z 04007KT CAVOK 20/13 Q1022

Time: 23:56 (02:56 UTC)

Forecast

The report was made 4 hours and 34 minutes ago, at 22:22 UTC
Forecast valid from 24 at 00 UTC to 24 at 12 UTC
Wind 5 kt from the Northeast
Visibility 10 km or more
no clouds below 1500 m and no cumulonimbus

TAF: SBUR 232222Z 2400/2412 04005KT CAVOK TX21/2400Z TN17/2409Z RMK PGQ

Weather observations and forecasts of more than 4000 airports (METAR and TAF reports).

The available stations are represented by yellow and red dots on the map.

Hover mouse over dot to see the name of the station.

Then click to see weather observations and forecasts.

To change the map : click on the green buttons with a black cross to zoom in, on the green button with a dash to zoom out, or on the green arrows for adjacent maps.


METAR-TAF: